Time;durP1;ratioP1;P1;durP2;ratioP2;P2;SDS_P1;SDS_P2;PMS_P1;PMS_P2;Temp;Humidity;BMP_temperature;BMP_pressure;BME280_temperature;BME280_humidity;BME280_pressure;Samples;Min_cycle;Max_cycle;Signal;HPM_P1;HPM_P2
2022/01/18 00:00:04;;;;;;;2.67;1.47;;;5.10;86.80;;;;;;1932492;74;21097;-47
2022/01/18 00:02:27;;;;;;;2.75;1.20;;;5.00;86.40;;;;;;1933526;74;21047;-45
2022/01/18 00:04:57;;;;;;;2.20;1.50;;;5.00;86.90;;;;;;1935744;74;21019;-44
2022/01/18 00:07:26;;;;;;;2.30;1.50;;;5.00;86.70;;;;;;1935778;74;21050;-44
2022/01/18 00:09:56;;;;;;;4.65;1.70;;;5.00;87.10;;;;;;1935628;74;20991;-44
2022/01/18 00:12:42;;;;;;;2.47;1.25;;;5.00;87.30;;;;;;1935652;74;21023;-43
2022/01/18 00:17:42;;;;;;;1.20;1.10;;;5.00;87.80;;;;;;1895525;74;21515;-45
2022/01/18 00:20:10;;;;;;;2.70;1.37;;;5.00;87.60;;;;;;1934912;74;21653;-47
2022/01/18 00:22:38;;;;;;;1.55;1.25;;;5.00;87.80;;;;;;1935632;74;21517;-44
2022/01/18 00:25:08;;;;;;;1.35;1.20;;;5.00;88.30;;;;;;1947378;74;21140;-44
2022/01/18 00:27:38;;;;;;;4.25;1.05;;;5.00;88.40;;;;;;1948742;74;20991;-44
2022/01/18 00:30:47;;;;;;;2.65;1.12;;;5.10;88.50;;;;;;1948723;74;20994;-46
2022/01/18 00:33:10;;;;;;;1.12;1.02;;;5.10;89.20;;;;;;1943242;74;21080;-46
2022/01/18 00:35:22;;;;;;;2.08;1.07;;;5.10;89.60;;;;;;1942956;74;21112;-45
2022/01/18 00:37:55;;;;;;;5.70;1.50;;;5.10;89.50;;;;;;1948827;74;21559;-46
2022/01/18 00:40:23;;;;;;;2.60;1.10;;;5.10;89.50;;;;;;1948676;74;21469;-45
2022/01/18 00:42:53;;;;;;;1.60;1.12;;;5.10;89.70;;;;;;1949089;74;21084;-45
2022/01/18 00:45:23;;;;;;;2.10;1.10;;;5.10;89.30;;;;;;1948672;73;21034;-45
2022/01/18 00:47:52;;;;;;;0.62;0.62;;;5.10;90.00;;;;;;1948841;74;21088;-46
2022/01/18 00:50:21;;;;;;;1.00;0.82;;;5.10;89.50;;;;;;1948661;74;21062;-44
2022/01/18 00:52:52;;;;;;;2.55;1.22;;;5.10;89.50;;;;;;1948798;74;21410;-44
2022/01/18 00:55:21;;;;;;;4.47;1.30;;;5.10;89.10;;;;;;1948862;74;21147;-43
2022/01/18 00:57:50;;;;;;;4.08;1.40;;;5.10;89.20;;;;;;1948743;74;21018;-45
2022/01/18 01:00:20;;;;;;;6.28;1.50;;;5.10;89.30;;;;;;1948663;73;21023;-44
2022/01/18 01:02:49;;;;;;;1.87;1.57;;;5.10;89.10;;;;;;1948805;74;21160;-46
2022/01/18 01:05:18;;;;;;;6.05;1.60;;;5.10;89.00;;;;;;1948702;74;20995;-46
2022/01/18 01:07:48;;;;;;;2.70;1.52;;;5.10;89.00;;;;;;1948700;74;21031;-44
2022/01/18 01:10:17;;;;;;;1.55;1.25;;;5.10;89.40;;;;;;1948674;74;21104;-46
2022/01/18 01:12:47;;;;;;;5.00;1.77;;;5.10;89.30;;;;;;1948709;74;21035;-45
2022/01/18 01:15:18;;;;;;;2.52;1.55;;;5.10;89.40;;;;;;1948719;74;21026;-46
2022/01/18 01:17:55;;;;;;;2.65;1.75;;;5.10;89.30;;;;;;1948881;74;21019;-44
2022/01/18 01:34:54;;;;;;;2.25;1.60;;;5.30;88.50;;;;;;1935714;74;21038;-46
2022/01/18 01:41:41;;;;;;;2.10;1.47;;;5.20;89.00;;;;;;1917199;74;21067;-47
2022/01/18 01:44:48;;;;;;;1.47;1.35;;;5.10;89.60;;;;;;1868844;74;21007;-46
2022/01/18 01:47:21;;;;;;;2.20;1.55;;;5.00;89.60;;;;;;1935598;74;21043;-46
2022/01/18 01:49:51;;;;;;;0.80;0.80;;;5.00;89.80;;;;;;1935584;74;21023;-46
2022/01/18 01:52:22;;;;;;;3.52;0.98;;;4.90;90.10;;;;;;1935716;74;21462;-43
2022/01/18 01:54:52;;;;;;;0.85;0.82;;;4.90;90.30;;;;;;1935643;74;21128;-46
2022/01/18 01:57:22;;;;;;;3.58;1.60;;;4.90;90.40;;;;;;1935618;74;21564;-44
2022/01/18 01:59:51;;;;;;;3.20;1.22;;;4.80;90.00;;;;;;1935551;74;21098;-44
2022/01/18 02:02:21;;;;;;;1.35;1.25;;;4.80;90.20;;;;;;1935604;74;21066;-44
2022/01/18 02:04:50;;;;;;;4.80;1.35;;;4.80;90.10;;;;;;1935560;74;21020;-45
2022/01/18 02:07:19;;;;;;;0.98;0.80;;;4.80;90.20;;;;;;1935646;74;21039;-45
2022/01/18 02:09:49;;;;;;;0.68;0.68;;;4.90;90.10;;;;;;1935639;74;21085;-45
2022/01/18 02:12:20;;;;;;;1.82;0.80;;;4.90;90.00;;;;;;1935619;74;21081;-44
2022/01/18 02:14:55;;;;;;;1.45;0.70;;;4.90;90.00;;;;;;1935459;74;21027;-48
2022/01/18 02:22:57;;;;;;;1.60;1.00;;;4.90;89.90;;;;;;1935689;74;21031;-44
2022/01/18 02:25:27;;;;;;;1.05;0.95;;;4.90;90.00;;;;;;1935555;74;21035;-44
2022/01/18 02:27:56;;;;;;;0.90;0.70;;;4.90;89.80;;;;;;1935602;74;21019;-44
2022/01/18 02:30:25;;;;;;;3.47;1.27;;;4.90;90.10;;;;;;1935568;74;21015;-44
2022/01/18 02:32:56;;;;;;;1.10;1.00;;;4.90;90.00;;;;;;1935698;74;21093;-45
2022/01/18 02:35:25;;;;;;;1.20;1.00;;;4.90;90.00;;;;;;1935526;74;21042;-46
2022/01/18 02:37:55;;;;;;;1.57;1.02;;;4.90;90.20;;;;;;1935672;74;21019;-47
2022/01/18 02:40:24;;;;;;;1.40;1.20;;;4.90;90.10;;;;;;1935565;74;20999;-46
2022/01/18 02:43:00;;;;;;;1.10;0.95;;;4.90;90.30;;;;;;1935563;74;21015;-45
2022/01/18 02:45:29;;;;;;;2.27;0.90;;;4.90;90.20;;;;;;1935608;74;21043;-46
2022/01/18 02:47:59;;;;;;;2.00;1.02;;;4.90;90.10;;;;;;1935633;74;21027;-44
2022/01/18 02:50:28;;;;;;;1.00;0.90;;;5.00;90.00;;;;;;1935511;74;21088;-44
2022/01/18 02:52:57;;;;;;;1.22;0.90;;;5.00;90.10;;;;;;1935564;74;21023;-44
2022/01/18 02:55:27;;;;;;;1.32;1.02;;;5.00;90.30;;;;;;1935607;74;21039;-45
2022/01/18 02:58:03;;;;;;;2.12;1.40;;;5.00;90.00;;;;;;1935615;74;21065;-45
2022/01/18 03:00:31;;;;;;;1.27;1.17;;;5.00;90.10;;;;;;1934525;74;21020;-44
2022/01/18 03:03:13;;;;;;;1.30;1.20;;;5.00;90.10;;;;;;1935404;74;21031;-44
2022/01/18 03:05:46;;;;;;;6.12;1.70;;;5.00;90.10;;;;;;1935711;74;21051;-43
2022/01/18 03:08:16;;;;;;;1.25;1.15;;;5.00;90.10;;;;;;1935818;74;21031;-45
2022/01/18 03:10:45;;;;;;;1.57;1.45;;;5.00;90.00;;;;;;1935742;74;21039;-44
2022/01/18 03:13:14;;;;;;;1.35;1.02;;;5.00;90.00;;;;;;1935656;74;21092;-45
2022/01/18 03:15:43;;;;;;;2.60;2.08;;;5.10;90.10;;;;;;1935685;74;21027;-46
2022/01/18 03:18:13;;;;;;;2.83;1.42;;;5.10;89.70;;;;;;1935704;74;21101;-45
2022/01/18 03:20:42;;;;;;;3.62;2.15;;;5.10;90.00;;;;;;1935736;74;21050;-45
2022/01/18 03:23:17;;;;;;;1.57;1.45;;;5.20;89.90;;;;;;1935636;74;21301;-47
2022/01/18 03:26:01;;;;;;;3.40;1.95;;;5.10;90.00;;;;;;1939965;74;21074;-44
2022/01/18 03:28:29;;;;;;;2.52;1.80;;;5.20;90.00;;;;;;1948668;73;21042;-44
2022/01/18 03:30:59;;;;;;;3.77;2.10;;;5.10;89.70;;;;;;1948822;73;21023;-46
2022/01/18 03:33:29;;;;;;;1.70;1.40;;;5.20;89.90;;;;;;1948801;74;21088;-47
2022/01/18 03:35:58;;;;;;;3.30;1.95;;;5.10;90.00;;;;;;1948798;74;21092;-46
2022/01/18 03:38:31;;;;;;;1.12;0.90;;;5.10;89.90;;;;;;1948737;74;21089;-44
2022/01/18 03:41:03;;;;;;;0.98;0.85;;;5.10;90.00;;;;;;1948837;74;21007;-46
2022/01/18 03:43:39;;;;;;;2.67;1.52;;;5.10;90.10;;;;;;1908940;75;21070;-44
2022/01/18 03:46:05;;;;;;;5.78;1.65;;;5.10;90.00;;;;;;1957045;73;21100;-44
2022/01/18 03:48:38;;;;;;;2.05;1.42;;;5.10;89.90;;;;;;1958734;73;21034;-47
2022/01/18 03:51:08;;;;;;;1.90;1.35;;;5.20;90.00;;;;;;1958776;73;21034;-45
2022/01/18 03:53:38;;;;;;;1.25;1.00;;;5.20;90.10;;;;;;1958648;73;21080;-46
2022/01/18 03:56:07;;;;;;;1.72;1.25;;;5.20;90.20;;;;;;1958762;73;21087;-44
2022/01/18 03:58:36;;;;;;;1.92;1.47;;;5.20;90.20;;;;;;1958649;73;21088;-47
2022/01/18 04:01:06;;;;;;;1.80;1.70;;;5.20;90.20;;;;;;1958567;73;21038;-44
2022/01/18 04:03:36;;;;;;;1.32;1.22;;;5.20;90.20;;;;;;1958670;73;21010;-44
2022/01/18 04:06:05;;;;;;;1.67;1.47;;;5.20;90.20;;;;;;1958635;73;21010;-46
2022/01/18 04:08:34;;;;;;;1.67;1.12;;;5.20;90.00;;;;;;1958658;73;21072;-45
2022/01/18 04:11:04;;;;;;;1.05;0.95;;;5.20;90.10;;;;;;1958648;73;21066;-47
2022/01/18 04:13:33;;;;;;;0.78;0.78;;;5.10;89.90;;;;;;1958559;73;21077;-44
2022/01/18 04:16:03;;;;;;;0.90;0.80;;;5.10;90.00;;;;;;1958725;73;21131;-43
2022/01/18 04:25:44;;;;;;;2.20;1.00;;;5.10;90.00;;;;;;1958693;73;21135;-44
2022/01/18 04:29:09;;;;;;;3.55;1.20;;;5.10;90.20;;;;;;1958578;73;21038;-43
2022/01/18 04:31:39;;;;;;;0.70;0.70;;;5.10;90.30;;;;;;1958637;73;21061;-44
2022/01/18 04:34:08;;;;;;;3.15;1.10;;;5.10;90.60;;;;;;1958615;73;21022;-46
2022/01/18 04:36:38;;;;;;;3.85;1.75;;;5.10;90.50;;;;;;1958733;73;21151;-45
2022/01/18 04:39:07;;;;;;;4.65;1.65;;;5.10;90.70;;;;;;1958585;73;20999;-44
2022/01/18 04:41:37;;;;;;;1.05;0.70;;;5.10;90.90;;;;;;1958636;73;21014;-47
2022/01/18 04:48:23;;;;;;;1.75;1.15;;;5.10;90.60;;;;;;1958631;73;21057;-46
2022/01/18 04:49:25;;;;;;;1.55;1.00;;;4.90;90.10;;;;;;1958744;73;21093;-45
2022/01/18 04:51:54;;;;;;;1.92;1.07;;;4.80;90.20;;;;;;1958730;73;21018;-45
2022/01/18 04:54:29;;;;;;;1.40;1.17;;;4.70;90.50;;;;;;1958587;73;21504;-45
2022/01/18 04:59:25;;;;;;;3.70;1.55;;;4.70;90.70;;;;;;1958685;73;21510;-45
2022/01/18 05:01:55;;;;;;;1.20;1.10;;;4.60;91.20;;;;;;1958705;73;21023;-45
2022/01/18 05:04:24;;;;;;;1.32;1.00;;;4.70;91.20;;;;;;1958639;73;21080;-46
2022/01/18 05:06:59;;;;;;;4.50;2.33;;;4.70;91.20;;;;;;1958619;73;20994;-48
2022/01/18 05:09:25;;;;;;;4.60;2.85;;;4.80;91.00;;;;;;1957957;73;21038;-48
2022/01/18 05:12:06;;;;;;;3.10;1.50;;;4.80;91.00;;;;;;1958632;73;21095;-46
2022/01/18 05:14:32;;;;;;;1.10;1.00;;;4.90;91.20;;;;;;1955642;73;21076;-45
2022/01/18 05:17:03;;;;;;;1.85;1.30;;;5.00;91.50;;;;;;1956468;73;21072;-49
2022/01/18 05:19:55;;;;;;;3.58;1.82;;;5.10;91.60;;;;;;1957360;73;21046;-46
2022/01/18 05:25:00;;;;;;;1.10;0.80;;;5.10;91.40;;;;;;1958691;73;21054;-47
2022/01/18 05:27:30;;;;;;;1.22;1.10;;;5.10;91.10;;;;;;1952295;73;21113;-47
2022/01/18 05:29:59;;;;;;;1.72;1.32;;;5.00;91.10;;;;;;1948352;74;21080;-46
2022/01/18 05:32:29;;;;;;;2.30;1.62;;;5.00;90.80;;;;;;1948394;74;21018;-45
2022/01/18 05:34:58;;;;;;;5.45;3.58;;;4.90;90.60;;;;;;1948341;74;21038;-44
2022/01/18 05:37:27;;;;;;;1.42;0.88;;;4.90;90.60;;;;;;1948472;74;21019;-44
2022/01/18 05:39:57;;;;;;;2.05;1.10;;;4.90;90.60;;;;;;1948333;74;21015;-45
2022/01/18 05:42:26;;;;;;;1.07;0.98;;;4.80;90.30;;;;;;1948270;74;21015;-46
2022/01/18 05:44:56;;;;;;;1.40;1.12;;;4.80;90.20;;;;;;1948336;74;21015;-44
2022/01/18 05:47:25;;;;;;;1.70;1.10;;;4.70;90.20;;;;;;1948313;73;21023;-46
2022/01/18 05:49:54;;;;;;;1.60;1.10;;;4.70;90.20;;;;;;1948441;74;21449;-44
2022/01/18 05:52:23;;;;;;;2.98;1.30;;;4.60;90.30;;;;;;1948350;74;21082;-44
2022/01/18 05:54:53;;;;;;;1.12;0.90;;;4.50;90.30;;;;;;1948331;74;21055;-46
2022/01/18 05:57:22;;;;;;;1.30;0.70;;;4.40;90.20;;;;;;1948366;74;21043;-44
2022/01/18 05:59:54;;;;;;;1.17;0.98;;;4.40;90.30;;;;;;1948229;73;21015;-44
2022/01/18 06:02:41;;;;;;;2.08;1.62;;;4.30;90.50;;;;;;1948379;74;21054;-45
2022/01/18 06:07:47;;;;;;;4.05;1.07;;;4.30;90.40;;;;;;1948365;74;21070;-45
2022/01/18 06:10:16;;;;;;;2.35;1.17;;;4.30;90.60;;;;;;1948398;73;21077;-47
2022/01/18 06:12:46;;;;;;;1.55;1.45;;;4.30;90.60;;;;;;1948331;74;21081;-44
2022/01/18 06:15:15;;;;;;;2.37;1.77;;;4.30;90.60;;;;;;1948289;74;21086;-44
2022/01/18 06:17:46;;;;;;;2.00;1.30;;;4.30;90.60;;;;;;1948313;74;21042;-46
2022/01/18 06:20:15;;;;;;;2.83;1.67;;;4.40;90.70;;;;;;1946721;74;21487;-44
2022/01/18 06:22:45;;;;;;;6.40;2.00;;;4.40;90.80;;;;;;1948450;73;21080;-44
2022/01/18 06:25:14;;;;;;;5.85;2.30;;;4.40;90.80;;;;;;1948389;74;21042;-44
2022/01/18 06:27:44;;;;;;;1.87;1.42;;;4.50;90.90;;;;;;1948338;74;21101;-44
2022/01/18 06:30:14;;;;;;;2.52;2.10;;;4.60;91.00;;;;;;1948362;74;21042;-44
2022/01/18 06:32:44;;;;;;;4.53;2.33;;;4.60;90.90;;;;;;1948521;74;21057;-45
2022/01/18 06:35:14;;;;;;;4.47;2.37;;;4.70;90.90;;;;;;1948580;74;21042;-44
2022/01/18 06:37:44;;;;;;;3.58;2.52;;;4.70;91.00;;;;;;1948576;74;21002;-43
2022/01/18 06:40:14;;;;;;;6.05;2.85;;;4.80;91.20;;;;;;1948607;74;21046;-44
2022/01/18 06:42:44;;;;;;;4.37;2.47;;;4.80;91.00;;;;;;1948672;74;21090;-44
2022/01/18 06:45:15;;;;;;;3.45;2.12;;;4.90;91.10;;;;;;1948639;74;21070;-44
2022/01/18 06:47:44;;;;;;;1.75;1.52;;;5.00;91.00;;;;;;1948633;73;21080;-44
2022/01/18 06:50:13;;;;;;;1.27;1.17;;;5.00;91.40;;;;;;1948636;74;21019;-44
2022/01/18 06:52:43;;;;;;;1.65;0.90;;;5.00;91.70;;;;;;1948542;74;21070;-45
2022/01/18 06:55:13;;;;;;;0.78;0.78;;;5.00;91.20;;;;;;1948607;74;20999;-45
2022/01/18 06:57:42;;;;;;;4.05;0.78;;;5.00;91.10;;;;;;1948515;74;21022;-46
2022/01/18 07:00:12;;;;;;;1.17;0.95;;;5.00;90.90;;;;;;1948436;73;21018;-44
2022/01/18 07:02:42;;;;;;;0.82;0.82;;;5.00;90.90;;;;;;1948528;74;21020;-46
2022/01/18 07:05:12;;;;;;;0.90;0.80;;;5.00;90.80;;;;;;1948646;74;21080;-46
2022/01/18 07:07:42;;;;;;;2.00;1.12;;;5.00;90.80;;;;;;1948546;74;21022;-44
2022/01/18 07:10:12;;;;;;;2.12;1.27;;;5.00;90.80;;;;;;1948583;73;21082;-45
2022/01/18 07:12:42;;;;;;;1.00;0.62;;;5.10;90.70;;;;;;1948789;74;21088;-44
2022/01/18 07:15:11;;;;;;;2.87;1.10;;;5.10;90.70;;;;;;1948599;74;21018;-44
2022/01/18 07:17:41;;;;;;;2.08;1.00;;;5.10;90.70;;;;;;1948607;74;20998;-44
2022/01/18 07:20:11;;;;;;;0.80;0.70;;;5.20;90.50;;;;;;1948371;74;21022;-44
2022/01/18 07:22:42;;;;;;;1.60;1.20;;;5.20;90.50;;;;;;1948379;73;21084;-44
2022/01/18 07:25:12;;;;;;;1.42;0.85;;;5.20;90.30;;;;;;1948477;74;21018;-44
2022/01/18 07:27:41;;;;;;;1.30;1.10;;;5.30;90.30;;;;;;1947994;73;21137;-44
2022/01/18 07:30:11;;;;;;;1.10;1.00;;;5.40;90.10;;;;;;1946415;74;20995;-44
2022/01/18 07:32:41;;;;;;;2.70;1.30;;;5.40;90.10;;;;;;1946524;74;21019;-44
2022/01/18 07:35:12;;;;;;;3.85;1.15;;;5.40;90.30;;;;;;1946594;74;21050;-44
2022/01/18 07:37:41;;;;;;;2.10;1.40;;;5.50;90.10;;;;;;1946369;74;21469;-44
2022/01/18 07:40:11;;;;;;;4.22;2.77;;;5.50;89.70;;;;;;1946431;74;20987;-44
2022/01/18 07:42:41;;;;;;;4.08;2.75;;;5.40;86.60;;;;;;1946414;74;21031;-44
2022/01/18 07:45:11;;;;;;;1.37;1.27;;;5.20;85.70;;;;;;1946392;74;21089;-44
2022/01/18 07:47:40;;;;;;;2.80;2.17;;;4.80;86.20;;;;;;1946403;74;21015;-44
2022/01/18 07:50:10;;;;;;;1.95;1.67;;;4.50;86.10;;;;;;1946407;74;21023;-44
2022/01/18 07:52:40;;;;;;;1.90;1.67;;;4.20;86.30;;;;;;1946534;73;21019;-43
2022/01/18 07:55:09;;;;;;;1.87;1.37;;;4.00;87.10;;;;;;1946474;74;21023;-44
2022/01/18 07:57:42;;;;;;;1.87;1.77;;;3.70;87.60;;;;;;1946579;74;20999;-44
2022/01/18 08:00:15;;;;;;;1.40;1.30;;;3.50;88.40;;;;;;1946530;74;21047;-43
2022/01/18 08:02:46;;;;;;;1.32;1.22;;;3.30;88.90;;;;;;1946545;74;21039;-44
2022/01/18 08:05:16;;;;;;;1.42;1.32;;;3.20;89.50;;;;;;1946522;74;21092;-44
2022/01/18 08:07:45;;;;;;;2.27;1.98;;;3.10;89.80;;;;;;1946656;74;21058;-45
2022/01/18 08:10:19;;;;;;;2.30;1.42;;;3.00;89.90;;;;;;1946517;74;21046;-47
2022/01/18 08:12:48;;;;;;;2.20;1.57;;;2.90;90.10;;;;;;1946678;74;21027;-44
2022/01/18 08:15:21;;;;;;;1.75;1.62;;;2.80;90.20;;;;;;1946577;74;21031;-44
2022/01/18 08:17:51;;;;;;;1.50;1.30;;;2.80;90.20;;;;;;1946526;74;21466;-44
2022/01/18 08:20:21;;;;;;;2.33;2.08;;;2.70;90.60;;;;;;1946459;74;21024;-46
2022/01/18 08:22:50;;;;;;;1.25;1.00;;;2.70;90.50;;;;;;1946536;74;21018;-46
2022/01/18 08:25:19;;;;;;;1.82;1.50;;;2.70;90.50;;;;;;1946369;73;21085;-44
2022/01/18 08:27:49;;;;;;;1.70;1.20;;;2.60;90.60;;;;;;1946478;74;21015;-44
2022/01/18 08:30:19;;;;;;;2.47;1.90;;;2.60;90.70;;;;;;1946431;74;21019;-44
2022/01/18 08:32:49;;;;;;;1.10;1.10;;;2.60;90.60;;;;;;1946486;74;20999;-45
2022/01/18 08:35:19;;;;;;;1.80;1.37;;;2.60;90.70;;;;;;1946324;74;21019;-44
2022/01/18 08:37:48;;;;;;;2.42;1.82;;;2.60;90.80;;;;;;1946586;74;21077;-43
2022/01/18 08:40:18;;;;;;;2.25;1.87;;;2.60;90.90;;;;;;1946409;73;21045;-45
2022/01/18 08:42:48;;;;;;;2.52;2.27;;;2.60;90.80;;;;;;1946336;74;21070;-44
2022/01/18 08:45:17;;;;;;;1.98;1.67;;;2.50;90.70;;;;;;1946358;74;21026;-45
2022/01/18 08:47:46;;;;;;;1.67;1.57;;;2.50;90.80;;;;;;1946384;74;21031;-47
2022/01/18 08:50:17;;;;;;;1.30;1.20;;;2.50;90.90;;;;;;1946393;74;21007;-45
2022/01/18 08:52:50;;;;;;;1.50;1.40;;;2.50;90.90;;;;;;1946517;73;21026;-44
2022/01/18 08:55:18;;;;;;;2.05;1.72;;;2.50;91.10;;;;;;1946113;74;21096;-44
2022/01/18 08:57:48;;;;;;;1.85;1.42;;;2.50;91.10;;;;;;1946383;74;21038;-45
2022/01/18 09:00:19;;;;;;;1.77;0.95;;;2.50;91.30;;;;;;1946473;74;21084;-44
2022/01/18 09:02:49;;;;;;;1.55;1.40;;;2.40;91.10;;;;;;1946400;74;21092;-44
2022/01/18 09:05:22;;;;;;;2.58;2.37;;;2.40;91.20;;;;;;1946329;74;21131;-44
2022/01/18 09:07:49;;;;;;;0.78;0.78;;;2.50;91.00;;;;;;1946259;74;20999;-44
2022/01/18 09:10:19;;;;;;;3.80;2.12;;;2.50;91.20;;;;;;1946401;74;21011;-44
2022/01/18 09:12:48;;;;;;;2.05;1.80;;;2.50;91.00;;;;;;1946410;74;21045;-44
2022/01/18 09:15:17;;;;;;;3.15;1.85;;;2.50;90.90;;;;;;1946336;74;21080;-43
2022/01/18 09:17:47;;;;;;;3.92;2.83;;;2.60;91.00;;;;;;1946475;73;20999;-44
2022/01/18 09:20:16;;;;;;;3.52;2.67;;;2.60;90.80;;;;;;1946466;74;21007;-43
2022/01/18 09:22:52;;;;;;;2.50;2.30;;;2.70;90.80;;;;;;1946482;74;21023;-44
2022/01/18 09:25:20;;;;;;;3.45;2.30;;;2.70;90.90;;;;;;1944361;74;21076;-44
2022/01/18 09:27:50;;;;;;;2.27;1.98;;;2.70;90.90;;;;;;1946535;74;21034;-44
2022/01/18 09:30:20;;;;;;;2.52;2.10;;;2.80;90.90;;;;;;1946538;73;21051;-44
2022/01/18 09:32:51;;;;;;;3.65;2.67;;;2.90;90.90;;;;;;1946399;74;21019;-44
2022/01/18 09:35:20;;;;;;;4.05;2.50;;;2.90;90.80;;;;;;1946480;74;21018;-43
2022/01/18 09:37:50;;;;;;;4.33;2.65;;;3.00;90.80;;;;;;1946394;74;20995;-44
2022/01/18 09:40:22;;;;;;;2.20;2.00;;;3.10;90.80;;;;;;1946419;74;21039;-44
2022/01/18 09:42:56;;;;;;;4.08;2.30;;;3.20;90.70;;;;;;1946355;74;21481;-44
2022/01/18 09:45:27;;;;;;;2.10;1.90;;;3.20;90.60;;;;;;1946516;73;21070;-44
2022/01/18 09:47:59;;;;;;;3.58;2.42;;;3.20;90.70;;;;;;1946473;74;21034;-44
2022/01/18 09:50:31;;;;;;;2.62;2.08;;;3.20;90.70;;;;;;1946374;74;21027;-44
2022/01/18 09:53:01;;;;;;;3.83;2.98;;;3.30;90.70;;;;;;1946388;74;21066;-45
2022/01/18 09:55:32;;;;;;;3.60;2.62;;;3.30;90.70;;;;;;1946305;74;21100;-44
2022/01/18 09:58:05;;;;;;;2.45;1.90;;;3.40;90.70;;;;;;1946348;74;21015;-45
2022/01/18 10:00:35;;;;;;;1.70;1.50;;;3.40;90.60;;;;;;1946579;74;21155;-45
2022/01/18 10:03:09;;;;;;;2.10;1.80;;;3.50;90.50;;;;;;1946457;74;21073;-45
2022/01/18 10:05:37;;;;;;;2.98;1.98;;;3.50;90.10;;;;;;1946005;74;21077;-46
2022/01/18 10:08:13;;;;;;;2.33;1.85;;;3.40;90.10;;;;;;1946418;74;21062;-45
2022/01/18 10:10:49;;;;;;;2.27;2.12;;;3.40;90.00;;;;;;1946382;74;21080;-45
2022/01/18 10:13:25;;;;;;;5.72;2.90;;;3.40;89.60;;;;;;1946584;74;21086;-46
2022/01/18 10:16:20;;;;;;;3.52;2.90;;;3.30;89.30;;;;;;1946446;74;21156;-45
2022/01/18 10:18:53;;;;;;;6.37;3.42;;;3.30;90.10;;;;;;1946319;74;21093;-45
2022/01/18 10:21:32;;;;;;;3.40;2.80;;;3.30;89.90;;;;;;1946481;74;21492;-45
2022/01/18 10:24:21;;;;;;;3.58;2.90;;;3.40;90.20;;;;;;1946460;74;21027;-45
2022/01/18 10:26:52;;;;;;;2.17;1.98;;;3.50;90.50;;;;;;1946442;74;21027;-45
2022/01/18 10:29:32;;;;;;;2.60;2.37;;;3.60;90.30;;;;;;1946387;73;21077;-45
2022/01/18 10:32:12;;;;;;;2.60;2.40;;;3.70;90.20;;;;;;1948393;74;21019;-44
2022/01/18 10:37:14;;;;;;;4.35;3.50;;;3.80;90.20;;;;;;1948316;73;21039;-45
2022/01/18 10:39:49;;;;;;;3.70;3.05;;;3.90;90.20;;;;;;1948330;74;21094;-44
2022/01/18 10:42:47;;;;;;;5.58;3.00;;;3.90;90.20;;;;;;1948381;73;20987;-44
2022/01/18 10:45:28;;;;;;;3.20;2.25;;;4.10;90.50;;;;;;1948249;73;21066;-45
2022/01/18 10:48:01;;;;;;;3.10;2.47;;;4.20;90.30;;;;;;1947779;73;21118;-45
2022/01/18 10:50:38;;;;;;;3.87;2.27;;;4.20;90.20;;;;;;1948306;74;21535;-45
2022/01/18 10:53:18;;;;;;;6.15;2.80;;;4.30;90.20;;;;;;1948268;74;21484;-44
2022/01/18 10:55:52;;;;;;;2.30;1.98;;;4.40;90.20;;;;;;1948211;74;21018;-44
2022/01/18 10:58:23;;;;;;;2.15;1.95;;;4.40;90.00;;;;;;1948493;74;21013;-44
2022/01/18 11:00:52;;;;;;;3.08;2.40;;;4.40;89.60;;;;;;1948217;74;21017;-43
2022/01/18 11:03:21;;;;;;;9.25;5.03;;;4.40;89.60;;;;;;1948171;73;21018;-44
2022/01/18 11:05:51;;;;;;;5.75;3.22;;;4.40;90.10;;;;;;1948364;73;21011;-44
2022/01/18 11:08:22;;;;;;;3.77;2.42;;;4.40;90.20;;;;;;1948360;74;21014;-44
2022/01/18 11:10:51;;;;;;;3.22;2.92;;;4.40;90.00;;;;;;1948254;73;21491;-44
2022/01/18 11:13:23;;;;;;;4.35;2.22;;;4.50;90.10;;;;;;1948309;74;21082;-43
2022/01/18 11:16:02;;;;;;;2.92;2.40;;;4.50;90.00;;;;;;1948161;74;21043;-44
2022/01/18 11:18:30;;;;;;;5.30;2.50;;;4.50;89.50;;;;;;1945760;74;21105;-43
2022/01/18 11:20:56;;;;;;;2.40;2.12;;;4.50;89.30;;;;;;1924662;74;21120;-44
2022/01/18 11:23:26;;;;;;;2.58;1.95;;;4.50;89.90;;;;;;1915455;74;21083;-44
2022/01/18 11:25:58;;;;;;;5.55;2.77;;;4.50;90.00;;;;;;1919725;74;21153;-44
2022/01/18 11:28:29;;;;;;;2.92;2.35;;;4.50;90.00;;;;;;1923920;74;21087;-44
2022/01/18 11:30:59;;;;;;;2.35;2.12;;;4.60;89.40;;;;;;1931841;73;21046;-45
2022/01/18 11:33:30;;;;;;;4.28;2.95;;;4.50;89.30;;;;;;1941706;73;21553;-44
2022/01/18 11:36:08;;;;;;;3.77;2.83;;;4.50;88.80;;;;;;1928402;73;21502;-44
2022/01/18 11:38:59;;;;;;;3.33;2.08;;;4.40;88.30;;;;;;1922854;74;21040;-44
2022/01/18 11:41:31;;;;;;;1.35;1.25;;;4.30;88.70;;;;;;1923997;74;21074;-44
2022/01/18 11:44:15;;;;;;;3.42;2.20;;;4.20;85.80;;;;;;1923150;74;21096;-44
2022/01/18 11:46:55;;;;;;;4.80;1.62;;;4.10;85.20;;;;;;1922759;74;21070;-44
2022/01/18 11:49:28;;;;;;;6.97;2.10;;;4.00;85.60;;;;;;1922989;74;21167;-44
2022/01/18 11:52:06;;;;;;;6.20;2.22;;;3.90;85.20;;;;;;1924612;74;21047;-44
2022/01/18 11:54:42;;;;;;;4.22;1.90;;;3.80;86.50;;;;;;1924470;74;21073;-45
2022/01/18 11:57:27;;;;;;;2.85;2.62;;;3.80;85.50;;;;;;1924181;74;21086;-44
2022/01/18 11:59:58;;;;;;;4.05;2.27;;;3.80;85.00;;;;;;1924347;74;21054;-44
2022/01/18 12:02:45;;;;;;;4.95;2.72;;;3.80;86.70;;;;;;1924269;74;21015;-44
2022/01/18 12:05:19;;;;;;;6.95;2.55;;;3.70;87.20;;;;;;1924326;74;21015;-44
2022/01/18 12:07:49;;;;;;;6.30;3.55;;;3.80;87.70;;;;;;1924364;74;21097;-45
2022/01/18 12:10:38;;;;;;;12.20;5.80;;;3.80;87.70;;;;;;1924437;74;21128;-45
2022/01/18 12:13:13;;;;;;;9.35;6.80;;;3.90;88.30;;;;;;1924372;74;21519;-44
2022/01/18 12:15:49;;;;;;;7.17;5.10;;;3.90;88.20;;;;;;1922841;74;21112;-44
2022/01/18 12:18:21;;;;;;;10.68;6.25;;;3.90;87.90;;;;;;1924284;74;21461;-44
2022/01/18 12:20:55;;;;;;;8.93;4.37;;;4.00;88.60;;;;;;1924381;74;21011;-45
2022/01/18 12:23:30;;;;;;;5.25;3.37;;;4.00;87.70;;;;;;1839737;78;21113;-44
2022/01/18 12:26:16;;;;;;;4.08;3.10;;;4.00;88.60;;;;;;1876128;76;21038;-44
2022/01/18 12:34:35;;;;;;;3.65;2.58;;;4.00;88.30;;;;;;1917746;73;20112;-44
2022/01/18 12:37:14;;;;;;;4.80;2.87;;;4.10;88.50;;;;;;1917603;75;21026;-44
2022/01/18 12:45:16;;;;;;;6.28;3.17;;;4.20;87.80;;;;;;1917725;73;21027;-44
2022/01/18 12:47:48;;;;;;;4.40;2.30;;;4.10;87.50;;;;;;1917723;75;21082;-44
2022/01/18 12:50:22;;;;;;;2.25;2.05;;;4.10;87.70;;;;;;1917547;75;21015;-44
2022/01/18 12:52:53;;;;;;;7.22;2.67;;;4.10;87.70;;;;;;1917642;75;21031;-44
2022/01/18 12:55:46;;;;;;;7.70;2.40;;;4.10;88.10;;;;;;1917586;75;21100;-44
2022/01/18 12:58:40;;;;;;;2.45;2.02;;;4.10;88.50;;;;;;1916188;74;21047;-44
2022/01/18 13:01:14;;;;;;;4.58;2.70;;;4.20;88.50;;;;;;1917585;75;21089;-44
2022/01/18 13:03:46;;;;;;;2.65;2.42;;;4.30;88.60;;;;;;1917781;74;21050;-44
2022/01/18 13:06:18;;;;;;;3.98;3.12;;;4.30;88.00;;;;;;1917684;75;21050;-45
2022/01/18 13:08:52;;;;;;;8.23;2.50;;;4.30;88.00;;;;;;1917455;74;21089;-43
2022/01/18 13:11:27;;;;;;;7.15;3.98;;;4.30;88.30;;;;;;1917668;74;21023;-44
2022/01/18 13:14:00;;;;;;;;;;;4.30;88.20;;;;;;1920431;75;21070;-44
2022/01/18 13:27:24;;;;;;;3.25;2.10;;;4.30;88.40;;;;;;1917549;75;21066;-45
2022/01/18 13:29:51;;;;;;;6.65;4.53;;;4.30;88.50;;;;;;1916697;74;21023;-45
2022/01/18 13:32:29;;;;;;;3.67;2.52;;;4.40;88.60;;;;;;1926640;74;21508;-44
2022/01/18 13:35:00;;;;;;;3.95;2.70;;;4.40;88.40;;;;;;1930065;74;21084;-45
2022/01/18 13:37:27;;;;;;;3.92;2.60;;;4.50;88.50;;;;;;1929636;74;21535;-44
2022/01/18 13:39:58;;;;;;;3.10;2.22;;;4.50;87.60;;;;;;1924578;74;21030;-44
2022/01/18 13:42:32;;;;;;;4.10;2.70;;;4.40;87.70;;;;;;1924591;74;21022;-44
2022/01/18 13:45:09;;;;;;;7.50;2.92;;;4.40;87.40;;;;;;1922651;74;21143;-44
2022/01/18 13:47:43;;;;;;;3.45;2.30;;;4.30;87.00;;;;;;1924717;74;21092;-44
2022/01/18 13:50:38;;;;;;;3.58;2.37;;;4.20;86.40;;;;;;1924805;74;21038;-44
2022/01/18 13:53:28;;;;;;;4.30;3.30;;;4.10;86.50;;;;;;1923597;74;21093;-43
2022/01/18 13:56:02;;;;;;;4.90;2.72;;;4.00;87.10;;;;;;1924698;74;21038;-45
2022/01/18 13:58:36;;;;;;;3.72;3.25;;;4.00;86.80;;;;;;1924760;74;21129;-44
2022/01/18 14:01:13;;;;;;;10.58;3.70;;;3.90;87.90;;;;;;1924000;74;21100;-44
2022/01/18 14:03:43;;;;;;;3.58;2.65;;;4.00;88.10;;;;;;1924589;74;21011;-44
2022/01/18 14:06:14;;;;;;;8.60;2.87;;;4.00;88.00;;;;;;1924691;74;21068;-44
2022/01/18 14:08:46;;;;;;;6.55;3.33;;;4.00;88.00;;;;;;1924600;74;21023;-43
2022/01/18 14:11:24;;;;;;;4.42;3.20;;;4.00;88.30;;;;;;1924721;74;21776;-44
2022/01/18 14:13:55;;;;;;;10.65;3.12;;;4.00;88.60;;;;;;1924572;74;21077;-44
2022/01/18 14:16:36;;;;;;;5.30;2.83;;;4.10;88.90;;;;;;1924542;74;21057;-44
2022/01/18 14:19:07;;;;;;;7.65;3.83;;;4.20;89.00;;;;;;1924558;74;21065;-43
2022/01/18 14:21:45;;;;;;;7.62;3.35;;;4.20;88.80;;;;;;1924668;74;21127;-44
2022/01/18 14:24:19;;;;;;;5.50;2.98;;;4.30;88.80;;;;;;1924555;74;21093;-45
2022/01/18 14:27:00;;;;;;;4.03;3.52;;;4.30;88.50;;;;;;1924773;74;21096;-45
2022/01/18 14:29:31;;;;;;;5.47;3.20;;;4.20;88.50;;;;;;1924648;74;21023;-44
2022/01/18 14:32:12;;;;;;;6.58;3.45;;;4.20;88.60;;;;;;1922458;74;21104;-46